createdAt,value
2023-02-11T00:00:27.046Z,1.04
2023-02-11T00:01:27.284Z,1.04
2023-02-11T00:02:27.385Z,1.04
2023-02-11T00:03:27.556Z,1.04
2023-02-11T00:04:27.652Z,1.04
2023-02-11T00:05:27.798Z,1.04
2023-02-11T00:06:28.060Z,1.04
2023-02-11T00:07:28.105Z,1.04
2023-02-11T00:08:28.250Z,1.04
2023-02-11T00:09:30.352Z,1.04
2023-02-11T00:10:28.538Z,1.04
2023-02-11T00:11:28.665Z,1.04
2023-02-11T00:12:28.817Z,1.04
2023-02-11T00:13:28.956Z,1.04
2023-02-11T00:14:29.145Z,1.04
2023-02-11T00:15:29.277Z,1.04
2023-02-11T00:16:29.403Z,1.04
2023-02-11T00:17:29.512Z,1.04
2023-02-11T00:18:29.671Z,1.04
2023-02-11T00:19:29.840Z,1.04
2023-02-11T00:20:29.979Z,1.04
2023-02-11T00:21:30.165Z,1.04
2023-02-11T00:22:30.278Z,1.04
2023-02-11T00:23:30.423Z,1.04
2023-02-11T00:24:30.618Z,1.04
2023-02-11T00:25:30.731Z,1.04
2023-02-11T00:26:30.896Z,1.04
2023-02-11T00:27:31.055Z,1.04
2023-02-11T00:28:31.220Z,1.04
2023-02-11T00:29:31.290Z,1.04
2023-02-11T00:30:31.457Z,1.04
2023-02-11T00:31:31.669Z,1.04
2023-02-11T00:32:31.698Z,1.04
2023-02-11T00:33:31.853Z,1.04
2023-02-11T00:34:32.006Z,1.04
2023-02-11T00:35:32.159Z,1.04
2023-02-11T00:36:32.302Z,1.04
2023-02-11T00:37:32.457Z,1.04
2023-02-11T00:38:32.595Z,1.04
2023-02-11T00:39:32.744Z,1.04
2023-02-11T00:40:32.904Z,1.04
2023-02-11T00:41:32.999Z,1.04
2023-02-11T00:42:33.153Z,1.04
2023-02-11T00:43:33.261Z,1.04
2023-02-11T00:44:33.427Z,1.04
2023-02-11T00:45:33.544Z,1.04
2023-02-11T00:46:33.754Z,1.04
2023-02-11T00:47:33.873Z,1.04
2023-02-11T00:48:34.015Z,1.04
2023-02-11T00:49:34.165Z,1.04
2023-02-11T00:50:34.304Z,1.04
2023-02-11T00:51:34.419Z,1.04
2023-02-11T00:52:34.565Z,1.04
2023-02-11T00:53:34.725Z,1.04
2023-02-11T00:54:34.871Z,1.04
2023-02-11T00:55:35.011Z,1.04
2023-02-11T00:56:35.176Z,1.04
2023-02-11T00:57:35.319Z,1.04
2023-02-11T00:58:35.473Z,1.04
2023-02-11T00:59:35.621Z,1.04
2023-02-11T01:00:35.766Z,1.04
2023-02-11T01:01:35.990Z,1.04
2023-02-11T01:02:36.029Z,1.04
2023-02-11T01:03:36.192Z,1.04
2023-02-11T01:04:36.343Z,1.04
2023-02-11T01:05:36.522Z,1.04
2023-02-11T01:06:36.656Z,1.04
2023-02-11T01:07:36.798Z,1.04
2023-02-11T01:08:36.947Z,1.04
2023-02-11T01:09:37.037Z,1.04
2023-02-11T01:10:37.173Z,1.04
2023-02-11T01:11:37.307Z,1.04
2023-02-11T01:12:37.440Z,1.04
2023-02-11T01:13:37.602Z,1.04
2023-02-11T01:14:37.754Z,1.04
2023-02-11T01:15:37.937Z,1.04
2023-02-11T01:16:38.046Z,1.04
2023-02-11T01:17:38.198Z,1.04
2023-02-11T01:18:38.350Z,1.04
2023-02-11T01:19:38.528Z,1.04
2023-02-11T01:20:38.668Z,1.04
2023-02-11T01:21:38.821Z,1.04
2023-02-11T01:22:38.972Z,1.04
2023-02-11T01:23:39.111Z,1.04
2023-02-11T01:24:39.276Z,1.04
2023-02-11T01:25:39.434Z,1.04
2023-02-11T01:26:39.575Z,1.04
2023-02-11T01:27:39.722Z,1.04
2023-02-11T01:28:40.037Z,1.04
2023-02-11T01:29:39.978Z,1.04
2023-02-11T01:30:40.132Z,1.04
2023-02-11T01:31:40.304Z,1.04
2023-02-11T01:32:40.372Z,1.04
2023-02-11T01:33:40.521Z,1.04
2023-02-11T01:34:40.680Z,1.04
2023-02-11T01:35:40.829Z,1.04
2023-02-11T01:36:40.993Z,1.04
2023-02-11T01:37:41.145Z,1.04
2023-02-11T01:38:41.459Z,1.04
2023-02-11T01:39:41.429Z,1.04
2023-02-11T01:40:41.597Z,1.04
2023-02-11T01:41:41.755Z,1.04
2023-02-11T01:42:41.896Z,1.04
2023-02-11T01:43:42.048Z,1.04
2023-02-11T01:44:42.204Z,1.04
2023-02-11T01:45:42.286Z,1.04
2023-02-11T01:46:42.417Z,1.04
2023-02-11T01:47:42.553Z,1.04
2023-02-11T01:48:42.704Z,1.04
2023-02-11T01:49:42.946Z,1.04
2023-02-11T01:50:42.961Z,1.04
2023-02-11T01:51:43.131Z,1.04
2023-02-11T01:52:43.326Z,1.04
2023-02-11T01:53:43.456Z,1.04
2023-02-11T01:54:43.619Z,1.04
2023-02-11T01:55:43.770Z,1.04
2023-02-11T01:56:43.919Z,1.04
2023-02-11T01:57:44.094Z,1.04
2023-02-11T01:58:44.155Z,1.04
2023-02-11T01:59:44.310Z,1.04
2023-02-11T02:00:44.428Z,1.04
2023-02-11T02:01:44.633Z,1.04
2023-02-11T02:02:44.721Z,1.04
2023-02-11T02:03:44.884Z,1.04
2023-02-11T02:04:44.985Z,1.04
2023-02-11T02:05:45.129Z,1.04
2023-02-11T02:06:45.284Z,1.04
2023-02-11T02:07:45.388Z,1.04
2023-02-11T02:08:45.474Z,1.04
2023-02-11T02:09:45.650Z,1.04
2023-02-11T02:10:45.792Z,1.04
2023-02-11T02:11:45.950Z,1.04
2023-02-11T02:12:46.102Z,1.04
2023-02-11T02:13:46.229Z,1.04
2023-02-11T02:14:46.392Z,1.04
2023-02-11T02:15:46.579Z,1.04
2023-02-11T02:16:46.651Z,1.04
2023-02-11T02:17:46.784Z,1.04
2023-02-11T02:18:46.934Z,1.04
2023-02-11T02:19:47.087Z,1.04
2023-02-11T02:20:47.241Z,1.04
2023-02-11T02:21:47.397Z,1.04
2023-02-11T02:22:47.546Z,1.04
2023-02-11T02:23:47.708Z,1.04
2023-02-11T02:24:47.860Z,1.04
2023-02-11T02:25:48.157Z,1.04
2023-02-11T02:26:48.056Z,1.04
2023-02-11T02:27:48.232Z,1.04
2023-02-11T02:28:48.360Z,1.04
2023-02-11T02:29:48.531Z,1.04
2023-02-11T02:30:48.714Z,1.04
2023-02-11T02:31:48.832Z,1.04
2023-02-11T02:32:48.918Z,1.04
2023-02-11T02:33:49.054Z,1.04
2023-02-11T02:34:49.207Z,1.04
2023-02-11T02:35:49.585Z,1.04
2023-02-11T02:36:49.505Z,1.04
2023-02-11T02:37:49.611Z,1.04
2023-02-11T02:38:49.739Z,1.04
2023-02-11T02:39:49.865Z,1.04
2023-02-11T02:40:50.017Z,1.04
2023-02-11T02:41:50.172Z,1.04
2023-02-11T02:42:50.315Z,1.04
2023-02-11T02:43:50.472Z,1.04
2023-02-11T02:44:50.636Z,1.04
2023-02-11T02:45:51.045Z,1.04
2023-02-11T02:46:50.981Z,1.04
2023-02-11T02:47:51.074Z,1.04
2023-02-11T02:48:51.230Z,1.04
2023-02-11T02:49:51.337Z,1.04
2023-02-11T02:50:51.476Z,1.04
2023-02-11T02:51:51.592Z,1.04
2023-02-11T02:52:51.689Z,1.04
2023-02-11T02:53:51.832Z,1.04
2023-02-11T02:54:51.982Z,1.04
2023-02-11T02:55:52.229Z,1.04
2023-02-11T02:56:52.245Z,1.04
2023-02-11T02:57:52.398Z,1.04
2023-02-11T02:58:52.550Z,1.04
2023-02-11T02:59:52.700Z,1.04
2023-02-11T03:00:52.844Z,1.04
2023-02-11T03:01:52.904Z,1.04
2023-02-11T03:02:53.012Z,1.04
2023-02-11T03:03:53.208Z,1.04
2023-02-11T03:04:53.320Z,1.04
2023-02-11T03:05:53.602Z,1.04
2023-02-11T03:06:53.559Z,1.04
2023-02-11T03:07:53.710Z,1.04
2023-02-11T03:08:53.849Z,1.04
2023-02-11T03:09:54.014Z,1.04
2023-02-11T03:10:54.168Z,1.04
2023-02-11T03:11:54.278Z,1.04
2023-02-11T03:12:54.413Z,1.04
2023-02-11T03:13:54.581Z,1.04
2023-02-11T03:14:54.743Z,1.04
2023-02-11T03:15:55.004Z,1.04
2023-02-11T03:16:54.969Z,1.04
2023-02-11T03:17:55.068Z,1.04
2023-02-11T03:18:55.240Z,1.04
2023-02-11T03:19:55.392Z,1.04
2023-02-11T03:20:55.534Z,1.04
2023-02-11T03:21:55.699Z,1.04
2023-02-11T03:22:55.846Z,1.04
2023-02-11T03:23:56.000Z,1.04
2023-02-11T03:24:56.139Z,1.04
2023-02-11T03:25:56.257Z,1.04
2023-02-11T03:26:56.398Z,1.04
2023-02-11T03:27:56.600Z,1.04
2023-02-11T03:28:56.659Z,1.04
2023-02-11T03:29:56.798Z,1.04
2023-02-11T03:30:56.947Z,1.04
2023-02-11T03:31:57.178Z,1.04
2023-02-11T03:32:57.273Z,1.04
2023-02-11T03:33:57.407Z,1.04
2023-02-11T03:34:57.558Z,1.04
2023-02-11T03:35:57.669Z,1.04
2023-02-11T03:36:57.811Z,1.04
2023-02-11T03:37:57.991Z,1.04
2023-02-11T03:38:58.098Z,1.04
2023-02-11T03:39:58.208Z,1.04
2023-02-11T03:40:58.379Z,1.04
2023-02-11T03:41:58.532Z,1.04
2023-02-11T03:42:58.669Z,1.04
2023-02-11T03:43:58.821Z,1.04
2023-02-11T03:44:58.970Z,1.04
2023-02-11T03:45:59.154Z,1.04
2023-02-11T03:46:59.265Z,1.04
2023-02-11T03:47:59.444Z,1.04
2023-02-11T03:48:59.594Z,1.04
2023-02-11T03:49:59.734Z,1.04
2023-02-11T03:50:59.905Z,1.04
2023-02-11T03:51:59.986Z,1.04
2023-02-11T03:53:00.152Z,1.04
2023-02-11T03:54:00.248Z,1.04
2023-02-11T03:55:00.349Z,1.04
2023-02-11T03:56:00.533Z,1.04
2023-02-11T03:57:00.648Z,1.04
2023-02-11T03:58:00.807Z,1.04
2023-02-11T03:59:00.944Z,1.04
2023-02-11T04:00:01.051Z,1.04
2023-02-11T04:01:01.197Z,1.04
2023-02-11T04:02:01.294Z,1.04
2023-02-11T04:03:01.463Z,1.04
2023-02-11T04:04:01.591Z,1.04
2023-02-11T04:05:01.653Z,1.04
2023-02-11T04:06:01.792Z,1.04
2023-02-11T04:07:01.947Z,1.04
2023-02-11T04:08:02.093Z,1.04
2023-02-11T04:09:02.210Z,1.04
2023-02-11T04:10:02.361Z,1.04
2023-02-11T04:11:02.500Z,1.04
2023-02-11T04:12:02.672Z,1.04
2023-02-11T04:13:02.778Z,1.04
2023-02-11T04:14:02.911Z,1.04
2023-02-11T04:15:03.019Z,1.04
2023-02-11T04:16:03.279Z,1.04
2023-02-11T04:17:03.272Z,1.04
2023-02-11T04:18:03.443Z,1.04
2023-02-11T04:19:03.563Z,1.04
2023-02-11T04:20:03.716Z,1.04
2023-02-11T04:21:03.876Z,1.04
2023-02-11T04:22:04.021Z,1.04
2023-02-11T04:23:04.182Z,1.04
2023-02-11T04:24:04.331Z,1.04
2023-02-11T04:25:04.476Z,1.04
2023-02-11T04:26:04.647Z,1.04
2023-02-11T04:27:04.789Z,1.04
2023-02-11T04:28:04.948Z,1.04
2023-02-11T04:29:05.074Z,1.04
2023-02-11T04:30:05.241Z,1.04
2023-02-11T04:31:05.566Z,1.04
2023-02-11T04:32:05.593Z,1.04
2023-02-11T04:33:05.635Z,1.04
2023-02-11T04:34:05.779Z,1.04
2023-02-11T04:35:05.940Z,1.04
2023-02-11T04:36:06.085Z,1.04
2023-02-11T04:37:06.195Z,1.04
2023-02-11T04:38:06.337Z,1.04
2023-02-11T04:39:06.501Z,1.04
2023-02-11T04:40:06.595Z,1.04
2023-02-11T04:41:06.744Z,1.04
2023-02-11T04:42:06.859Z,1.04
2023-02-11T04:43:06.996Z,1.04
2023-02-11T04:44:07.103Z,1.04
2023-02-11T04:45:07.221Z,1.04
2023-02-11T04:46:07.373Z,1.04
2023-02-11T04:47:07.501Z,1.04
2023-02-11T04:48:07.602Z,1.04
2023-02-11T04:49:07.760Z,1.04
2023-02-11T04:50:07.925Z,1.04
2023-02-11T04:51:08.057Z,1.04
2023-02-11T04:52:08.242Z,1.04
2023-02-11T04:53:08.355Z,1.04
2023-02-11T04:54:08.523Z,1.04
2023-02-11T04:55:08.660Z,1.04
2023-02-11T04:56:08.810Z,1.04
2023-02-11T04:57:08.982Z,1.04
2023-02-11T04:58:09.117Z,1.04
2023-02-11T04:59:09.287Z,1.04
2023-02-11T05:00:09.412Z,1.04
2023-02-11T05:01:09.623Z,1.04
2023-02-11T05:02:10.213Z,1.04
2023-02-11T05:03:09.819Z,1.04
2023-02-11T05:04:10.062Z,1.04
2023-02-11T05:05:10.097Z,1.04
2023-02-11T05:06:10.247Z,1.04
2023-02-11T05:07:10.388Z,1.04
2023-02-11T05:08:10.500Z,1.04
2023-02-11T05:09:10.593Z,1.04
2023-02-11T05:10:10.748Z,1.04
2023-02-11T05:11:10.910Z,1.04
2023-02-11T05:12:11.075Z,1.04
2023-02-11T05:13:11.197Z,1.04
2023-02-11T05:14:11.292Z,1.04
2023-02-11T05:15:11.450Z,1.04
2023-02-11T05:16:11.770Z,1.04
2023-02-11T05:17:11.707Z,1.04
2023-02-11T05:18:11.857Z,1.04
2023-02-11T05:19:12.030Z,1.04
2023-02-11T05:20:12.168Z,1.04
2023-02-11T05:21:12.266Z,1.04
2023-02-11T05:22:12.421Z,1.04
2023-02-11T05:23:12.567Z,1.04
2023-02-11T05:24:12.722Z,1.04
2023-02-11T05:25:12.805Z,1.04
2023-02-11T05:26:12.958Z,1.04
2023-02-11T05:27:13.118Z,1.04
2023-02-11T05:28:13.361Z,1.04
2023-02-11T05:29:13.376Z,1.04
2023-02-11T05:30:13.526Z,1.04
2023-02-11T05:31:13.724Z,1.04
2023-02-11T05:32:13.794Z,1.04
2023-02-11T05:33:13.880Z,1.04
2023-02-11T05:34:14.029Z,1.04
2023-02-11T05:35:14.143Z,1.04
2023-02-11T05:36:14.247Z,1.04
2023-02-11T05:37:14.402Z,1.04
2023-02-11T05:38:14.529Z,1.04
2023-02-11T05:39:14.677Z,1.04
2023-02-11T05:40:14.824Z,1.04
2023-02-11T05:41:14.987Z,1.04
2023-02-11T05:42:15.137Z,1.04
2023-02-11T05:43:15.290Z,1.04
2023-02-11T05:44:15.446Z,1.04
2023-02-11T05:45:15.579Z,1.04
2023-02-11T05:46:15.780Z,1.04
2023-02-11T05:47:15.900Z,1.04
2023-02-11T05:48:16.047Z,1.04
2023-02-11T05:49:16.214Z,1.04
2023-02-11T05:50:16.361Z,1.04
2023-02-11T05:51:16.456Z,1.04
2023-02-11T05:52:16.603Z,1.04
2023-02-11T05:53:16.703Z,1.04
2023-02-11T05:54:16.851Z,1.04
2023-02-11T05:55:16.958Z,1.04
2023-02-11T05:56:17.110Z,1.04
2023-02-11T05:57:17.255Z,2
2023-02-11T05:58:17.417Z,2
2023-02-11T05:59:17.586Z,2
2023-02-11T06:00:17.647Z,2
2023-02-11T06:01:17.778Z,2
2023-02-11T06:02:17.958Z,3.04
2023-02-11T06:03:18.146Z,3.04
2023-02-11T06:04:18.180Z,4
2023-02-11T06:05:18.328Z,5.04
2023-02-11T06:06:18.487Z,5.04
2023-02-11T06:07:18.622Z,6
2023-02-11T06:08:18.768Z,7.04
2023-02-11T06:09:18.933Z,8
2023-02-11T06:10:19.088Z,9.04
2023-02-11T06:11:19.227Z,11.04
2023-02-11T06:12:19.335Z,13.04
2023-02-11T06:13:19.486Z,14
2023-02-11T06:14:19.645Z,17.04
2023-02-11T06:15:19.776Z,18
2023-02-11T06:16:20.006Z,21.04
2023-02-11T06:17:20.420Z,24
2023-02-11T06:18:20.564Z,28
2023-02-11T06:19:20.722Z,33.04
2023-02-11T06:20:20.520Z,37.04
2023-02-11T06:21:20.648Z,39.04
2023-02-11T06:22:20.805Z,43.04
2023-02-11T06:23:20.943Z,47.04
2023-02-11T06:24:44.236Z,52
2023-02-11T06:25:21.156Z,57.04
2023-02-11T06:26:21.252Z,62
2023-02-11T06:27:21.395Z,71.04
2023-02-11T06:28:21.580Z,79.04
2023-02-11T06:29:21.660Z,84
2023-02-11T06:30:21.793Z,91.04
2023-02-11T06:31:22.048Z,102
2023-02-11T06:32:39.781Z,114
2023-02-11T06:33:22.263Z,128
2023-02-11T06:34:22.415Z,145.04
2023-02-11T06:35:22.590Z,156
2023-02-11T06:36:22.719Z,174.08
2023-02-11T06:37:22.869Z,186.08
2023-02-11T06:38:23.016Z,198.08
2023-02-11T06:39:23.170Z,220
2023-02-11T06:40:23.333Z,245.12
2023-02-11T06:41:23.487Z,270.08
2023-02-11T06:42:23.569Z,283.04
2023-02-11T06:43:23.745Z,304
2023-02-11T06:44:23.887Z,343.04
2023-02-11T06:45:24.024Z,375.04
2023-02-11T06:46:24.219Z,371.2
2023-02-11T06:47:24.344Z,364.16
2023-02-11T06:48:24.493Z,378.24
2023-02-11T06:49:24.615Z,386.24
2023-02-11T06:50:24.744Z,386.24
2023-02-11T06:51:24.900Z,403.2
2023-02-11T06:52:25.046Z,480
2023-02-11T06:53:25.220Z,554.24
2023-02-11T06:54:25.347Z,595.2
2023-02-11T06:55:25.502Z,623.04
2023-02-11T06:56:25.634Z,634.24
2023-02-11T06:57:25.742Z,618.24
2023-02-11T06:58:25.882Z,663.04
2023-02-11T06:59:26.036Z,724.48
2023-02-11T07:00:26.142Z,740.48
2023-02-11T07:01:26.382Z,803.2
2023-02-11T07:02:26.446Z,875.52
2023-02-11T07:03:26.603Z,887.04
2023-02-11T07:04:26.757Z,882.56
2023-02-11T07:05:26.899Z,927.36
2023-02-11T07:06:27.051Z,1015.04
2023-02-11T07:07:27.168Z,1052.16
2023-02-11T07:08:27.306Z,1024
2023-02-11T07:09:27.413Z,1000.32
2023-02-11T07:10:27.506Z,1061.12
2023-02-11T07:11:27.726Z,1070.08
2023-02-11T07:12:27.815Z,1007.36
2023-02-11T07:13:27.912Z,982.4
2023-02-11T07:14:28.076Z,1051.52
2023-02-11T07:15:28.231Z,1149.44
2023-02-11T07:16:28.428Z,1251.2
2023-02-11T07:17:28.470Z,1548.8
2023-02-11T07:18:28.567Z,1781.76
2023-02-11T07:19:28.680Z,1959.68
2023-02-11T07:20:28.813Z,1964.8
2023-02-11T07:21:28.964Z,1978.88
2023-02-11T07:22:29.113Z,2003.2
2023-02-11T07:23:29.214Z,1916.16
2023-02-11T07:24:29.374Z,1911.04
2023-02-11T07:25:29.523Z,1957.12
2023-02-11T07:26:29.678Z,1944.32
2023-02-11T07:27:29.821Z,1713.92
2023-02-11T07:28:30.063Z,1625.6
2023-02-11T07:29:30.140Z,1687.04
2023-02-11T07:30:30.277Z,1466.88
2023-02-11T07:31:30.527Z,1383.68
2023-02-11T07:32:30.550Z,1335.04
2023-02-11T07:33:30.706Z,1270.4
2023-02-11T07:34:30.924Z,1201.28
2023-02-11T07:35:30.984Z,1136
2023-02-11T07:36:31.654Z,1120
2023-02-11T07:37:31.214Z,1166.08
2023-02-11T07:38:31.368Z,1247.36
2023-02-11T07:39:31.521Z,1431.04
2023-02-11T07:40:31.691Z,1701.12
2023-02-11T07:41:31.807Z,1944.32
2023-02-11T07:42:31.973Z,2085.12
2023-02-11T07:43:32.137Z,2163.2
2023-02-11T07:44:32.276Z,2252.8
2023-02-11T07:45:32.413Z,2201.6
2023-02-11T07:46:32.593Z,2211.84
2023-02-11T07:47:32.613Z,2396.16
2023-02-11T07:48:32.765Z,2392.32
2023-02-11T07:49:33.345Z,2311.68
2023-02-11T07:50:33.021Z,2744.32
2023-02-11T07:51:33.118Z,3054.08
2023-02-11T07:52:33.247Z,3005.44
2023-02-11T07:53:33.380Z,3069.44
2023-02-11T07:54:33.522Z,3384.32
2023-02-11T07:55:33.668Z,3484.16
2023-02-11T07:56:33.779Z,3668.48
2023-02-11T07:57:33.951Z,3911.68
2023-02-11T07:58:34.090Z,4078.08
2023-02-11T07:59:34.243Z,4190.72
2023-02-11T08:00:34.426Z,4021.76
2023-02-11T08:01:34.448Z,4234.24
2023-02-11T08:02:34.619Z,4354.56
2023-02-11T08:03:34.710Z,4392.96
2023-02-11T08:04:34.839Z,4551.68
2023-02-11T08:05:34.987Z,4508.16
2023-02-11T08:06:35.092Z,4124.16
2023-02-11T08:07:35.232Z,3837.44
2023-02-11T08:08:35.397Z,3758.08
2023-02-11T08:09:35.551Z,3847.68
2023-02-11T08:10:35.702Z,3875.84
2023-02-11T08:11:35.851Z,3822.08
2023-02-11T08:12:35.961Z,3688.96
2023-02-11T08:13:36.110Z,3622.4
2023-02-11T08:14:36.264Z,3397.12
2023-02-11T08:15:36.407Z,2995.2
2023-02-11T08:16:36.542Z,2826.24
2023-02-11T08:17:36.666Z,2757.12
2023-02-11T08:18:36.816Z,2864.64
2023-02-11T08:19:36.975Z,2903.04
2023-02-11T08:20:37.126Z,2997.76
2023-02-11T08:21:37.305Z,3189.76
2023-02-11T08:22:37.412Z,3402.24
2023-02-11T08:23:37.522Z,3330.56
2023-02-11T08:24:37.662Z,3176.96
2023-02-11T08:25:37.846Z,3079.68
2023-02-11T08:26:37.921Z,3028.48
2023-02-11T08:27:38.079Z,3095.04
2023-02-11T08:28:38.227Z,3205.12
2023-02-11T08:29:38.375Z,3136
2023-02-11T08:30:38.542Z,2810.88
2023-02-11T08:31:38.849Z,2629.12
2023-02-11T08:32:38.834Z,2639.36
2023-02-11T08:33:38.968Z,2734.08
2023-02-11T08:34:39.133Z,2693.12
2023-02-11T08:35:39.245Z,2867.2
2023-02-11T08:36:39.382Z,3105.28
2023-02-11T08:37:39.470Z,3261.44
2023-02-11T08:38:39.624Z,3612.16
2023-02-11T08:39:39.724Z,4093.44
2023-02-11T08:40:39.891Z,3983.36
2023-02-11T08:41:39.976Z,4180.48
2023-02-11T08:42:40.078Z,4083.2
2023-02-11T08:43:40.186Z,4354.56
2023-02-11T08:44:40.334Z,4518.4
2023-02-11T08:45:40.488Z,4531.2
2023-02-11T08:46:40.539Z,4354.56
2023-02-11T08:47:40.691Z,4249.6
2023-02-11T08:48:40.858Z,4403.2
2023-02-11T08:49:40.955Z,4477.44
2023-02-11T08:50:41.105Z,4405.76
2023-02-11T08:51:41.269Z,4295.68
2023-02-11T08:52:41.415Z,4380.16
2023-02-11T08:53:41.555Z,4416
2023-02-11T08:54:41.711Z,4500.48
2023-02-11T08:55:41.871Z,4400.64
2023-02-11T08:56:42.020Z,3898.88
2023-02-11T08:57:42.179Z,3215.36
2023-02-11T08:58:42.328Z,2795.52
2023-02-11T08:59:42.482Z,2813.44
2023-02-11T09:00:42.610Z,2987.52
2023-02-11T09:01:42.781Z,3325.44
2023-02-11T09:02:42.985Z,4280.32
2023-02-11T09:03:43.070Z,5580.8
2023-02-11T09:04:43.215Z,5626.88
2023-02-11T09:05:43.378Z,5888
2023-02-11T09:06:43.545Z,6225.92
2023-02-11T09:07:43.695Z,6579.2
2023-02-11T09:08:46.275Z,6389.76
2023-02-11T09:09:43.993Z,7275.52
2023-02-11T09:10:44.147Z,8309.76
2023-02-11T09:11:44.319Z,8514.56
2023-02-11T09:12:44.464Z,6958.08
2023-02-11T09:13:44.596Z,6266.88
2023-02-11T09:14:44.694Z,6394.88
2023-02-11T09:15:44.781Z,7055.36
2023-02-11T09:16:44.979Z,7214.08
2023-02-11T09:17:45.101Z,7976.96
2023-02-11T09:18:45.230Z,9410.56
2023-02-11T09:19:45.353Z,10557.439
2023-02-11T09:20:45.496Z,11028.479
2023-02-11T09:21:45.629Z,11008
2023-02-11T09:22:45.757Z,9707.52
2023-02-11T09:23:45.851Z,8821.76
2023-02-11T09:24:46.003Z,9221.12
2023-02-11T09:25:46.146Z,9456.64
2023-02-11T09:26:46.242Z,9287.68
2023-02-11T09:27:46.402Z,8791.04
2023-02-11T09:28:46.555Z,7869.44
2023-02-11T09:29:46.677Z,7920.64
2023-02-11T09:30:46.876Z,8412.16
2023-02-11T09:31:47.113Z,7582.72
2023-02-11T09:32:47.059Z,6661.12
2023-02-11T09:33:47.210Z,6538.24
2023-02-11T09:34:47.361Z,6563.84
2023-02-11T09:35:47.510Z,6195.2
2023-02-11T09:36:47.676Z,5381.12
2023-02-11T09:37:47.815Z,5867.52
2023-02-11T09:38:47.972Z,6814.72
2023-02-11T09:39:48.117Z,6082.56
2023-02-11T09:40:48.528Z,5089.28
2023-02-11T09:41:48.434Z,4986.88
2023-02-11T09:42:48.568Z,5227.52
2023-02-11T09:43:48.730Z,4290.56
2023-02-11T09:44:48.852Z,3691.52
2023-02-11T09:45:49.045Z,3514.88
2023-02-11T09:46:49.081Z,3832.32
2023-02-11T09:47:49.230Z,4480
2023-02-11T09:48:49.400Z,4956.16
2023-02-11T09:49:49.531Z,4508.16
2023-02-11T09:50:49.918Z,3916.8
2023-02-11T09:51:49.840Z,3064.32
2023-02-11T09:52:49.987Z,3020.8
2023-02-11T09:53:50.136Z,2997.76
2023-02-11T09:54:50.244Z,3404.8
2023-02-11T09:55:50.393Z,3325.44
2023-02-11T09:56:50.551Z,3287.04
2023-02-11T09:57:50.698Z,3284.48
2023-02-11T09:58:50.853Z,3251.2
2023-02-11T09:59:51.017Z,3458.56
2023-02-11T10:00:51.317Z,3712
2023-02-11T10:01:51.345Z,3924.48
2023-02-11T10:02:51.399Z,4994.56
2023-02-11T10:03:51.518Z,4961.28
2023-02-11T10:04:51.664Z,5765.12
2023-02-11T10:05:51.763Z,6184.96
2023-02-11T10:06:51.907Z,6947.84
2023-02-11T10:07:52.151Z,7925.76
2023-02-11T10:08:52.210Z,8217.6
2023-02-11T10:09:52.368Z,7731.2
2023-02-11T10:10:52.837Z,7485.44
2023-02-11T10:11:52.670Z,8033.28
2023-02-11T10:12:52.820Z,8663.04
2023-02-11T10:13:52.982Z,9733.12
2023-02-11T10:14:53.126Z,10060.8
2023-02-11T10:15:53.328Z,9420.8
2023-02-11T10:16:53.375Z,9139.2
2023-02-11T10:17:53.526Z,9507.84
2023-02-11T10:18:53.642Z,9466.88
2023-02-11T10:19:53.746Z,8565.76
2023-02-11T10:20:53.878Z,8074.24
2023-02-11T10:21:54.033Z,8166.4
2023-02-11T10:22:54.161Z,8043.52
2023-02-11T10:23:54.288Z,7884.8
2023-02-11T10:24:54.448Z,7383.04
2023-02-11T10:25:54.616Z,6681.6
2023-02-11T10:26:54.750Z,6179.84
2023-02-11T10:27:54.923Z,5888
2023-02-11T10:28:55.062Z,6369.28
2023-02-11T10:29:55.206Z,6640.64
2023-02-11T10:30:55.622Z,7214.08
2023-02-11T10:31:58.175Z,6343.68
2023-02-11T10:32:55.595Z,6087.68
2023-02-11T10:33:55.756Z,6103.04
2023-02-11T10:34:55.868Z,6318.08
2023-02-11T10:35:56.020Z,6497.28
2023-02-11T10:36:56.169Z,7239.68
2023-02-11T10:37:56.358Z,7608.32
2023-02-11T10:38:56.471Z,8017.92
2023-02-11T10:39:56.587Z,8304.64
2023-02-11T10:40:56.732Z,8448
2023-02-11T10:41:56.874Z,8432.64
2023-02-11T10:42:57.020Z,8678.399
2023-02-11T10:43:57.127Z,9635.84
2023-02-11T10:44:57.275Z,10117.12
2023-02-11T10:45:57.446Z,9026.56
2023-02-11T10:46:57.840Z,9277.439
2023-02-11T10:47:58.006Z,9702.399
2023-02-11T10:48:57.781Z,10255.359
2023-02-11T10:49:57.872Z,10403.84
2023-02-11T10:50:57.972Z,10245.12
2023-02-11T10:51:58.065Z,8704
2023-02-11T10:52:58.221Z,8606.72
2023-02-11T10:53:58.379Z,9000.96
2023-02-11T10:54:58.523Z,8934.399
2023-02-11T10:55:58.675Z,10035.2
2023-02-11T10:56:58.862Z,10209.279
2023-02-11T10:57:59.014Z,10071.04
2023-02-11T10:58:59.159Z,9861.12
2023-02-11T10:59:59.300Z,10193.92
2023-02-11T11:00:59.387Z,10403.84
2023-02-11T11:01:59.594Z,10163.2
2023-02-11T11:02:59.698Z,10265.6
2023-02-11T11:03:59.886Z,10347.52
2023-02-11T11:05:00.048Z,10557.439
2023-02-11T11:06:00.198Z,10311.68
2023-02-11T11:07:00.306Z,10823.68
2023-02-11T11:08:00.421Z,10936.319
2023-02-11T11:09:00.584Z,10874.88
2023-02-11T11:10:00.736Z,10449.92
2023-02-11T11:11:00.875Z,9902.08
2023-02-11T11:12:01.026Z,9384.96
2023-02-11T11:13:01.205Z,9410.56
2023-02-11T11:14:01.343Z,8852.479
2023-02-11T11:15:01.477Z,8181.76
2023-02-11T11:16:01.629Z,7229.44
2023-02-11T11:17:01.780Z,7582.72
2023-02-11T11:18:15.428Z,7895.04
2023-02-11T11:19:02.079Z,7889.92
2023-02-11T11:20:02.256Z,8202.24
2023-02-11T11:21:02.376Z,7608.32
2023-02-11T11:22:02.516Z,7557.12
2023-02-11T11:23:02.670Z,8104.96
2023-02-11T11:24:02.817Z,8642.56
2023-02-11T11:25:02.977Z,8775.68
2023-02-11T11:26:03.075Z,8289.28
2023-02-11T11:27:03.190Z,7767.04
2023-02-11T11:28:03.361Z,7086.08
2023-02-11T11:29:03.482Z,6594.56
2023-02-11T11:30:03.647Z,5237.76
2023-02-11T11:31:03.891Z,4823.04
2023-02-11T11:32:04.020Z,4866.56
2023-02-11T11:33:04.046Z,5872.64
2023-02-11T11:34:04.136Z,6010.88
2023-02-11T11:35:04.288Z,5770.24
2023-02-11T11:36:04.389Z,6067.2
2023-02-11T11:37:04.493Z,5550.08
2023-02-11T11:38:04.653Z,5693.44
2023-02-11T11:39:04.744Z,5058.56
2023-02-11T11:40:04.857Z,4899.84
2023-02-11T11:41:05.001Z,5015.04
2023-02-11T11:42:05.167Z,5391.36
2023-02-11T11:43:05.309Z,4853.76
2023-02-11T11:44:05.458Z,4945.92
2023-02-11T11:45:05.611Z,4812.8
2023-02-11T11:46:05.751Z,4736
2023-02-11T11:47:05.908Z,5647.36
2023-02-11T11:48:06.093Z,7009.28
2023-02-11T11:49:06.227Z,7311.36
2023-02-11T11:50:06.367Z,8417.28
2023-02-11T11:51:06.520Z,8535.04
2023-02-11T11:52:06.663Z,8396.8
2023-02-11T11:53:06.827Z,8007.68
2023-02-11T11:54:06.963Z,8770.56
2023-02-11T11:55:07.132Z,7946.24
2023-02-11T11:56:07.282Z,6819.84
2023-02-11T11:57:07.421Z,7075.84
2023-02-11T11:58:07.531Z,8012.8
2023-02-11T11:59:07.673Z,7244.8
2023-02-11T12:00:07.843Z,6676.48
2023-02-11T12:01:07.939Z,6318.08
2023-02-11T12:02:08.636Z,6522.88
2023-02-11T12:03:08.304Z,7055.36
2023-02-11T12:04:08.394Z,7567.36
2023-02-11T12:05:08.562Z,7695.36
2023-02-11T12:06:08.718Z,7321.6
2023-02-11T12:07:08.849Z,7193.6
2023-02-11T12:08:09.006Z,6369.28
2023-02-11T12:09:09.149Z,5913.6
2023-02-11T12:10:09.280Z,5765.12
2023-02-11T12:11:09.392Z,5739.52
2023-02-11T12:12:09.536Z,5539.84
2023-02-11T12:13:09.728Z,5601.28
2023-02-11T12:14:09.915Z,5626.88
2023-02-11T12:15:10.012Z,5370.88
2023-02-11T12:16:10.185Z,5160.96
2023-02-11T12:17:10.305Z,5104.64
2023-02-11T12:18:10.411Z,4843.52
2023-02-11T12:19:10.564Z,4582.4
2023-02-11T12:20:10.668Z,4428.8
2023-02-11T12:21:10.753Z,4556.8
2023-02-11T12:22:10.913Z,4469.76
2023-02-11T12:23:11.078Z,4408.32
2023-02-11T12:24:11.237Z,4520.96
2023-02-11T12:25:11.356Z,4487.68
2023-02-11T12:26:11.510Z,4817.92
2023-02-11T12:27:11.659Z,5043.2
2023-02-11T12:28:11.863Z,4695.04
2023-02-11T12:29:11.975Z,4638.72
2023-02-11T12:30:12.122Z,4298.24
2023-02-11T12:31:13.273Z,4282.88
2023-02-11T12:32:12.530Z,4705.28
2023-02-11T12:33:12.579Z,4869.12
2023-02-11T12:34:12.675Z,4989.44
2023-02-11T12:35:12.778Z,4925.44
2023-02-11T12:36:12.931Z,4904.96
2023-02-11T12:37:13.097Z,5058.56
2023-02-11T12:38:13.248Z,4997.12
2023-02-11T12:39:13.395Z,4889.6
2023-02-11T12:40:13.580Z,4656.64
2023-02-11T12:41:13.640Z,4513.28
2023-02-11T12:42:13.793Z,4334.08
2023-02-11T12:43:13.944Z,4037.12
2023-02-11T12:44:14.110Z,3921.92
2023-02-11T12:45:14.262Z,4032
2023-02-11T12:46:14.454Z,4060.16
2023-02-11T12:47:14.520Z,4001.28